createdAt,value
2022-08-04T00:00:30.828Z,28.85
2022-08-04T00:01:31.167Z,28.81
2022-08-04T00:02:31.434Z,28.78
2022-08-04T00:03:31.722Z,28.73
2022-08-04T00:04:32.054Z,28.70
2022-08-04T00:05:32.334Z,28.70
2022-08-04T00:06:32.566Z,28.68
2022-08-04T00:07:44.167Z,28.65
2022-08-04T00:08:34.183Z,28.63
2022-08-04T00:09:33.528Z,28.58
2022-08-04T00:10:33.799Z,28.53
2022-08-04T00:11:34.086Z,28.50
2022-08-04T00:12:37.856Z,28.48
2022-08-04T00:13:35.698Z,28.43
2022-08-04T00:14:34.978Z,28.44
2022-08-04T00:15:35.362Z,28.47
2022-08-04T00:16:38.412Z,28.47
2022-08-04T00:17:35.911Z,28.47
2022-08-04T00:18:36.209Z,28.48
2022-08-04T00:19:37.482Z,28.50
2022-08-04T00:20:36.800Z,28.48
2022-08-04T00:21:37.108Z,28.44
2022-08-04T00:22:37.366Z,28.44
2022-08-04T00:24:10.598Z,28.44
2022-08-04T00:24:39.008Z,28.44
2022-08-04T00:25:38.376Z,28.43
2022-08-04T00:26:38.641Z,28.40
2022-08-04T00:27:38.912Z,28.38
2022-08-04T00:28:39.221Z,28.33
2022-08-04T00:29:39.538Z,28.32
2022-08-04T00:30:39.906Z,28.32
2022-08-04T00:31:56.960Z,28.31
2022-08-04T00:32:41.449Z,28.28
2022-08-04T00:33:40.731Z,28.29
2022-08-04T00:34:40.989Z,28.25
2022-08-04T00:35:41.403Z,28.23
2022-08-04T00:36:41.626Z,28.28
2022-08-04T00:37:41.973Z,28.29
2022-08-04T00:38:42.293Z,28.31
2022-08-04T00:39:42.616Z,28.26
2022-08-04T00:40:42.731Z,28.23
2022-08-04T00:41:56.411Z,28.21
2022-08-04T00:42:58.273Z,28.17
2022-08-04T00:43:44.601Z,28.17
2022-08-04T00:44:43.924Z,28.11
2022-08-04T00:46:14.944Z,28.09
2022-08-04T00:46:45.503Z,28.09
2022-08-04T00:47:44.819Z,28.01
2022-08-04T00:48:45.135Z,28.03
2022-08-04T00:49:45.400Z,27.96
2022-08-04T00:50:45.804Z,27.94
2022-08-04T00:51:46.123Z,27.92
2022-08-04T00:52:46.366Z,27.92
2022-08-04T00:53:50.120Z,27.94
2022-08-04T00:54:47.088Z,27.94
2022-08-04T00:55:47.369Z,27.92
2022-08-04T00:56:47.644Z,27.91
2022-08-04T00:57:47.912Z,27.94
2022-08-04T00:58:48.180Z,27.95
2022-08-04T00:59:48.484Z,27.94
2022-08-04T01:00:48.788Z,27.96
2022-08-04T01:01:49.124Z,27.96
2022-08-04T01:02:49.388Z,27.95
2022-08-04T01:03:49.649Z,27.96
2022-08-04T01:04:49.966Z,27.96
2022-08-04T01:05:50.248Z,27.96
2022-08-04T01:06:51.746Z,27.98
2022-08-04T01:07:51.827Z,27.96
2022-08-04T01:08:51.110Z,27.99
2022-08-04T01:09:51.568Z,27.99
2022-08-04T01:10:51.697Z,27.99
2022-08-04T01:11:56.695Z,27.98
2022-08-04T01:12:53.354Z,27.96
2022-08-04T01:13:52.638Z,27.95
2022-08-04T01:14:52.933Z,27.95
2022-08-04T01:15:56.332Z,27.92
2022-08-04T01:16:54.498Z,27.88
2022-08-04T01:17:53.819Z,27.84
2022-08-04T01:18:54.098Z,27.84
2022-08-04T01:19:54.364Z,27.80
2022-08-04T01:20:54.668Z,27.79
2022-08-04T01:21:55.007Z,27.77
2022-08-04T01:22:55.287Z,27.74
2022-08-04T01:23:55.637Z,27.66
2022-08-04T01:24:55.872Z,27.61
2022-08-04T01:25:56.303Z,27.57
2022-08-04T01:26:58.399Z,27.57
2022-08-04T01:27:56.792Z,27.53
2022-08-04T01:28:57.041Z,27.53
2022-08-04T01:29:57.341Z,27.53
2022-08-04T01:30:57.638Z,27.54
2022-08-04T01:31:57.921Z,27.58
2022-08-04T01:32:58.240Z,27.62
2022-08-04T01:34:03.813Z,27.61
2022-08-04T01:34:59.831Z,27.61
2022-08-04T01:35:59.183Z,27.57
2022-08-04T01:36:59.466Z,27.53
2022-08-04T01:37:59.721Z,27.47
2022-08-04T01:39:00.067Z,27.41
2022-08-04T01:40:00.346Z,27.33
2022-08-04T01:41:00.667Z,27.28
2022-08-04T01:42:00.933Z,27.26
2022-08-04T01:43:01.287Z,27.24
2022-08-04T01:44:01.563Z,27.16
2022-08-04T01:45:01.875Z,27.16
2022-08-04T01:46:02.192Z,27.11
2022-08-04T01:47:02.394Z,27.06
2022-08-04T01:48:02.713Z,27.06
2022-08-04T01:49:02.968Z,27.02
2022-08-04T01:50:03.314Z,27.04
2022-08-04T01:51:03.608Z,27.02
2022-08-04T01:52:03.872Z,26.98
2022-08-04T01:53:04.183Z,26.95
2022-08-04T01:54:04.496Z,26.98
2022-08-04T01:55:04.764Z,27.01
2022-08-04T01:56:05.064Z,27.04
2022-08-04T01:57:36.990Z,27.04
2022-08-04T01:58:06.644Z,27.05
2022-08-04T01:59:05.953Z,27.05
2022-08-04T02:00:06.228Z,27.06
2022-08-04T02:01:08.274Z,27.10
2022-08-04T02:02:06.957Z,27.06
2022-08-04T02:03:07.096Z,27.10
2022-08-04T02:04:19.398Z,27.11
2022-08-04T02:05:08.719Z,27.10
2022-08-04T02:06:08.433Z,27.06
2022-08-04T02:07:08.298Z,27.09
2022-08-04T02:08:08.602Z,27.06
2022-08-04T02:09:08.917Z,27.01
2022-08-04T02:10:09.211Z,26.98
2022-08-04T02:11:09.523Z,26.96
2022-08-04T02:12:16.063Z,26.92
2022-08-04T02:13:11.058Z,26.87
2022-08-04T02:14:10.350Z,26.87
2022-08-04T02:15:11.511Z,26.81
2022-08-04T02:16:10.946Z,26.80
2022-08-04T02:17:11.222Z,26.81
2022-08-04T02:18:11.501Z,26.84
2022-08-04T02:19:14.703Z,26.83
2022-08-04T02:20:12.059Z,26.86
2022-08-04T02:21:12.356Z,26.86
2022-08-04T02:22:12.616Z,26.91
2022-08-04T02:23:12.903Z,26.92
2022-08-04T02:24:13.232Z,26.94
2022-08-04T02:25:13.524Z,26.95
2022-08-04T02:26:22.056Z,26.92
2022-08-04T02:27:15.164Z,26.87
2022-08-04T02:28:14.354Z,26.83
2022-08-04T02:29:14.654Z,26.79
2022-08-04T02:30:14.872Z,26.77
2022-08-04T02:31:15.188Z,26.74
2022-08-04T02:32:15.465Z,26.73
2022-08-04T02:33:15.810Z,26.67
2022-08-04T02:34:16.102Z,26.61
2022-08-04T02:35:16.317Z,26.58
2022-08-04T02:36:16.611Z,26.52
2022-08-04T02:37:16.862Z,26.44
2022-08-04T02:38:17.194Z,26.40
2022-08-04T02:39:18.560Z,26.37
2022-08-04T02:40:17.713Z,26.32
2022-08-04T02:41:17.998Z,26.25
2022-08-04T02:42:18.743Z,26.25
2022-08-04T02:43:18.543Z,26.20
2022-08-04T02:44:19.831Z,26.21
2022-08-04T02:45:19.139Z,26.18
2022-08-04T02:46:19.508Z,26.18
2022-08-04T02:47:20.139Z,26.17
2022-08-04T02:48:29.968Z,26.12
2022-08-04T02:49:21.445Z,26.09
2022-08-04T02:50:28.594Z,26.06
2022-08-04T02:51:22.011Z,26.02
2022-08-04T02:52:21.393Z,26.02
2022-08-04T02:53:21.674Z,26.01
2022-08-04T02:54:30.292Z,25.94
2022-08-04T02:55:23.282Z,25.91
2022-08-04T02:56:22.605Z,25.93
2022-08-04T02:57:23.319Z,25.93
2022-08-04T02:58:23.137Z,25.91
2022-08-04T02:59:23.505Z,25.91
2022-08-04T03:00:23.767Z,25.93
2022-08-04T03:01:24.567Z,25.91
2022-08-04T03:02:24.415Z,25.94
2022-08-04T03:03:24.725Z,25.98
2022-08-04T03:04:25.478Z,25.97
2022-08-04T03:05:25.315Z,26.02
2022-08-04T03:06:25.639Z,26.01
2022-08-04T03:07:25.924Z,26.08
2022-08-04T03:08:26.233Z,26.08
2022-08-04T03:09:26.497Z,26.11
2022-08-04T03:10:26.823Z,26.17
2022-08-04T03:11:27.130Z,26.11
2022-08-04T03:12:27.437Z,26.11
2022-08-04T03:13:27.769Z,26.12
2022-08-04T03:14:28.051Z,26.15
2022-08-04T03:15:28.358Z,26.11
2022-08-04T03:16:30.210Z,26.04
2022-08-04T03:17:28.766Z,26.04
2022-08-04T03:18:29.085Z,26.01
2022-08-04T03:19:29.421Z,26.04
2022-08-04T03:20:29.753Z,25.99
2022-08-04T03:21:30.022Z,25.94
2022-08-04T03:22:30.338Z,25.94
2022-08-04T03:23:30.674Z,25.98
2022-08-04T03:24:30.949Z,25.98
2022-08-04T03:25:31.199Z,25.97
2022-08-04T03:26:31.433Z,25.97
2022-08-04T03:27:31.654Z,25.99
2022-08-04T03:28:32.020Z,26.02
2022-08-04T03:29:36.561Z,26.02
2022-08-04T03:30:33.745Z,26.08
2022-08-04T03:31:32.991Z,26.05
2022-08-04T03:32:33.249Z,26.09
2022-08-04T03:33:33.537Z,26.11
2022-08-04T03:34:33.797Z,26.09
2022-08-04T03:35:34.156Z,26.11
2022-08-04T03:36:34.365Z,26.08
2022-08-04T03:37:34.716Z,26.08
2022-08-04T03:38:35.029Z,26.08
2022-08-04T03:39:35.440Z,26.11
2022-08-04T03:40:35.622Z,26.08
2022-08-04T03:41:51.668Z,26.04
2022-08-04T03:42:37.344Z,25.99
2022-08-04T03:43:57.342Z,25.97
2022-08-04T03:44:37.896Z,25.93
2022-08-04T03:45:37.233Z,25.83
2022-08-04T03:46:37.595Z,25.82
2022-08-04T03:47:42.284Z,25.79
2022-08-04T03:48:39.117Z,25.75
2022-08-04T03:49:38.348Z,25.74
2022-08-04T03:50:41.444Z,25.75
2022-08-04T03:51:38.941Z,25.75
2022-08-04T03:52:39.196Z,25.72
2022-08-04T03:53:39.401Z,25.72
2022-08-04T03:54:39.728Z,25.72
2022-08-04T03:55:40.073Z,25.72
2022-08-04T03:56:40.331Z,25.74
2022-08-04T03:57:40.574Z,25.71
2022-08-04T03:58:40.820Z,25.71
2022-08-04T03:59:41.061Z,25.71
2022-08-04T04:00:42.298Z,25.72
2022-08-04T04:02:02.511Z,25.72
2022-08-04T04:02:42.807Z,25.75
2022-08-04T04:03:42.093Z,25.74
2022-08-04T04:04:42.302Z,25.72
2022-08-04T04:05:58.881Z,25.68
2022-08-04T04:06:44.045Z,25.68
2022-08-04T04:07:44.969Z,25.69
2022-08-04T04:08:45.147Z,25.69
2022-08-04T04:09:58.083Z,25.69
2022-08-04T04:10:45.250Z,25.68
2022-08-04T04:11:57.425Z,25.67
2022-08-04T04:12:45.851Z,25.68
2022-08-04T04:13:45.073Z,25.68
2022-08-04T04:14:45.470Z,25.69
2022-08-04T04:15:49.806Z,25.71
2022-08-04T04:16:45.936Z,25.74
2022-08-04T04:17:46.175Z,25.79
2022-08-04T04:18:46.445Z,25.77
2022-08-04T04:19:46.672Z,25.82
2022-08-04T04:20:47.023Z,25.75
2022-08-04T04:21:47.357Z,25.77
2022-08-04T04:22:47.617Z,25.75
2022-08-04T04:23:47.889Z,25.75
2022-08-04T04:24:48.127Z,25.75
2022-08-04T04:25:48.391Z,25.74
2022-08-04T04:26:48.624Z,25.79
2022-08-04T04:27:48.929Z,25.79
2022-08-04T04:28:49.270Z,25.82
2022-08-04T04:29:49.495Z,25.80
2022-08-04T04:30:49.870Z,25.83
2022-08-04T04:31:50.096Z,25.80
2022-08-04T04:32:50.350Z,25.82
2022-08-04T04:33:50.567Z,25.82
2022-08-04T04:34:50.893Z,25.83
2022-08-04T04:35:52.017Z,25.84
2022-08-04T04:36:51.382Z,25.86
2022-08-04T04:37:51.680Z,25.86
2022-08-04T04:38:51.937Z,25.83
2022-08-04T04:39:52.178Z,25.87
2022-08-04T04:40:52.403Z,25.80
2022-08-04T04:41:52.625Z,25.80
2022-08-04T04:42:52.852Z,25.79
2022-08-04T04:43:53.224Z,25.75
2022-08-04T04:44:53.449Z,25.72
2022-08-04T04:45:53.803Z,25.75
2022-08-04T04:46:54.220Z,25.77
2022-08-04T04:48:08.610Z,25.75
2022-08-04T04:48:55.616Z,25.77
2022-08-04T04:49:54.866Z,25.77
2022-08-04T04:50:55.199Z,25.87
2022-08-04T04:51:55.389Z,25.89
2022-08-04T04:52:55.619Z,25.90
2022-08-04T04:54:00.123Z,25.93
2022-08-04T04:54:56.298Z,25.90
2022-08-04T04:55:56.535Z,25.91
2022-08-04T04:56:56.845Z,25.91
2022-08-04T04:57:57.015Z,25.90
2022-08-04T04:58:57.373Z,25.91
2022-08-04T04:59:57.632Z,25.93
2022-08-04T05:00:57.857Z,25.90
2022-08-04T05:01:58.115Z,25.90
2022-08-04T05:03:01.114Z,25.97
2022-08-04T05:03:58.590Z,26.02
2022-08-04T05:04:58.876Z,26.01
2022-08-04T05:05:59.038Z,25.99
2022-08-04T05:06:59.406Z,26.02
2022-08-04T05:08:00.137Z,26.06
2022-08-04T05:09:01.026Z,26.09
2022-08-04T05:10:00.271Z,26.15
2022-08-04T05:11:00.609Z,26.11
2022-08-04T05:12:02.531Z,26.15
2022-08-04T05:14:35.435Z,26.17
2022-08-04T05:14:37.034Z,26.17
2022-08-04T05:15:02.781Z,26.12
2022-08-04T05:16:02.021Z,26.15
2022-08-04T05:17:02.253Z,26.12
2022-08-04T05:18:02.519Z,26.18
2022-08-04T05:19:02.723Z,26.18
2022-08-04T05:20:03.093Z,26.20
2022-08-04T05:21:03.327Z,26.20
2022-08-04T05:22:03.546Z,26.21
2022-08-04T05:23:03.918Z,26.21
2022-08-04T05:24:04.151Z,26.20
2022-08-04T05:25:04.428Z,26.22
2022-08-04T05:26:04.669Z,26.24
2022-08-04T05:27:04.932Z,26.24
2022-08-04T05:28:05.119Z,26.18
2022-08-04T05:29:05.492Z,26.15
2022-08-04T05:30:05.807Z,26.11
2022-08-04T05:31:06.019Z,26.11
2022-08-04T05:32:06.288Z,26.17
2022-08-04T05:33:06.541Z,26.20
2022-08-04T05:34:06.829Z,26.20
2022-08-04T05:35:07.100Z,26.20
2022-08-04T05:36:23.454Z,26.24
2022-08-04T05:37:08.580Z,26.28
2022-08-04T05:38:07.817Z,26.29
2022-08-04T05:39:08.121Z,26.28
2022-08-04T05:40:08.412Z,26.31
2022-08-04T05:41:08.657Z,26.32
2022-08-04T05:42:09.844Z,26.37
2022-08-04T05:43:09.236Z,26.39
2022-08-04T05:44:09.523Z,26.36
2022-08-04T05:45:09.770Z,26.37
2022-08-04T05:46:10.034Z,26.35
2022-08-04T05:47:10.286Z,26.29
2022-08-04T05:48:10.636Z,26.25
2022-08-04T05:49:10.891Z,26.22
2022-08-04T05:50:12.137Z,26.24
2022-08-04T05:51:11.426Z,26.27
2022-08-04T05:52:11.716Z,26.24
2022-08-04T05:53:11.938Z,26.20
2022-08-04T05:54:12.160Z,26.22
2022-08-04T05:55:12.529Z,26.24
2022-08-04T05:56:12.815Z,26.27
2022-08-04T05:57:13.156Z,26.35
2022-08-04T05:58:13.355Z,26.35
2022-08-04T05:59:13.580Z,26.35
2022-08-04T06:00:38.776Z,26.36
2022-08-04T06:01:15.076Z,26.39
2022-08-04T06:02:14.403Z,26.40
2022-08-04T06:03:14.636Z,26.46
2022-08-04T06:04:14.850Z,26.52
2022-08-04T06:05:15.105Z,26.58
2022-08-04T06:06:15.360Z,26.61
2022-08-04T06:07:15.634Z,26.67
2022-08-04T06:08:15.914Z,26.73
2022-08-04T06:09:16.161Z,26.72
2022-08-04T06:10:16.397Z,26.76
2022-08-04T06:11:16.714Z,26.77
2022-08-04T06:12:16.958Z,26.79
2022-08-04T06:13:49.119Z,26.80
2022-08-04T06:14:18.472Z,26.77
2022-08-04T06:15:17.742Z,26.81
2022-08-04T06:16:30.152Z,26.86
2022-08-04T06:19:57.202Z,26.92
2022-08-04T06:19:57.460Z,26.87
2022-08-04T06:20:00.492Z,26.99
2022-08-04T06:20:22.802Z,27.02
2022-08-04T06:21:19.301Z,27.10
2022-08-04T06:22:19.558Z,27.14
2022-08-04T06:23:19.789Z,27.11
2022-08-04T06:24:20.038Z,27.14
2022-08-04T06:25:20.291Z,27.20
2022-08-04T06:26:20.573Z,27.23
2022-08-04T06:27:20.974Z,27.23
2022-08-04T06:28:21.113Z,27.28
2022-08-04T06:29:21.344Z,27.28
2022-08-04T06:30:21.563Z,27.31
2022-08-04T06:32:31.026Z,27.32
2022-08-04T06:32:31.762Z,27.35
2022-08-04T06:33:23.461Z,27.35
2022-08-04T06:34:22.745Z,27.38
2022-08-04T06:35:22.966Z,27.36
2022-08-04T06:36:23.215Z,27.38
2022-08-04T06:37:41.456Z,27.41
2022-08-04T06:38:24.759Z,27.47
2022-08-04T06:39:24.096Z,27.47
2022-08-04T06:40:32.022Z,27.53
2022-08-04T06:41:25.631Z,27.58
2022-08-04T06:42:24.873Z,27.67
2022-08-04T06:43:25.120Z,27.70
2022-08-04T06:44:26.383Z,27.74
2022-08-04T06:45:25.669Z,27.84
2022-08-04T06:46:25.937Z,27.82
2022-08-04T06:47:26.185Z,27.82
2022-08-04T06:48:33.356Z,27.85
2022-08-04T06:49:27.714Z,27.84
2022-08-04T06:51:32.633Z,27.86
2022-08-04T06:51:38.954Z,27.85
2022-08-04T06:52:28.512Z,27.92
2022-08-04T06:53:27.817Z,27.94
2022-08-04T06:54:28.061Z,27.94
2022-08-04T06:55:28.729Z,27.96
2022-08-04T06:56:28.824Z,27.98
2022-08-04T06:57:29.012Z,28.01
2022-08-04T06:58:29.427Z,28.01
2022-08-04T06:59:29.543Z,28.03
2022-08-04T07:00:29.843Z,28.06
2022-08-04T07:01:30.110Z,28.07
2022-08-04T07:02:30.298Z,28.09
2022-08-04T07:03:30.700Z,28.09
2022-08-04T07:04:31.053Z,28.14
2022-08-04T07:05:31.250Z,28.19
2022-08-04T07:06:31.708Z,28.11
2022-08-04T07:07:36.882Z,28.13
2022-08-04T07:08:33.147Z,28.16
2022-08-04T07:09:32.473Z,28.17
2022-08-04T07:10:32.672Z,28.23
2022-08-04T07:11:44.244Z,28.32
2022-08-04T07:12:34.162Z,28.38
2022-08-04T07:13:33.493Z,28.43
2022-08-04T07:14:33.765Z,28.41
2022-08-04T07:15:33.952Z,28.47
2022-08-04T07:16:34.219Z,28.47
2022-08-04T07:17:34.762Z,28.43
2022-08-04T07:18:34.749Z,28.51
2022-08-04T07:19:35.053Z,28.56
2022-08-04T07:20:36.809Z,28.59
2022-08-04T07:21:35.578Z,28.58
2022-08-04T07:22:35.934Z,28.63
2022-08-04T07:23:36.127Z,28.60
2022-08-04T07:24:36.373Z,28.59
2022-08-04T07:25:59.954Z,28.59
2022-08-04T07:26:37.903Z,28.60
2022-08-04T07:27:48.642Z,28.62
2022-08-04T07:28:38.418Z,28.66
2022-08-04T07:29:37.706Z,28.73
2022-08-04T07:30:37.957Z,28.82
2022-08-04T07:31:38.274Z,28.85
2022-08-04T07:32:38.505Z,28.85
2022-08-04T07:33:38.765Z,28.90
2022-08-04T07:34:39.194Z,28.91
2022-08-04T07:36:09.922Z,28.96
2022-08-04T07:36:50.333Z,29.03
2022-08-04T07:37:40.904Z,29.10
2022-08-04T07:38:48.655Z,29.10
2022-08-04T07:39:47.804Z,29.15
2022-08-04T07:40:41.630Z,29.22
2022-08-04T07:41:41.965Z,29.29
2022-08-04T07:42:42.121Z,29.37
2022-08-04T07:43:41.384Z,29.38
2022-08-04T07:44:41.640Z,29.35
2022-08-04T07:45:41.915Z,29.43
2022-08-04T07:46:42.219Z,29.47
2022-08-04T07:47:42.428Z,29.53
2022-08-04T07:48:43.695Z,29.55
2022-08-04T07:49:54.335Z,29.56
2022-08-04T07:50:44.162Z,29.60
2022-08-04T07:51:43.458Z,29.63
2022-08-04T07:52:43.702Z,29.68
2022-08-04T07:53:54.822Z,29.70
2022-08-04T07:54:45.227Z,29.71
2022-08-04T07:55:44.534Z,29.74
2022-08-04T07:56:44.852Z,29.74
2022-08-04T07:57:45.135Z,29.77
2022-08-04T07:58:45.369Z,29.77
2022-08-04T07:59:49.670Z,29.79
2022-08-04T08:00:45.881Z,29.82
2022-08-04T08:01:46.138Z,29.94
2022-08-04T08:02:46.414Z,29.94
2022-08-04T08:03:46.751Z,29.97
2022-08-04T08:04:46.995Z,30.08
2022-08-04T08:05:54.629Z,30.19
2022-08-04T08:06:48.511Z,30.26
2022-08-04T08:07:50.830Z,30.36
2022-08-04T08:08:49.066Z,30.53
2022-08-04T08:09:48.305Z,30.57
2022-08-04T08:10:48.583Z,30.61
2022-08-04T08:12:38.656Z,30.74
2022-08-04T08:12:52.138Z,30.90
2022-08-04T08:13:49.453Z,31.01
2022-08-04T08:14:49.690Z,31.17
2022-08-04T08:15:50.077Z,31.23
2022-08-04T08:16:50.762Z,31.39
2022-08-04T08:17:59.773Z,31.49
2022-08-04T08:18:51.817Z,31.93
2022-08-04T08:19:51.161Z,32.37
2022-08-04T08:20:51.369Z,32.84
2022-08-04T08:21:59.204Z,33.11
2022-08-04T08:22:53.047Z,33.31
2022-08-04T08:23:52.302Z,33.51
2022-08-04T08:24:52.731Z,33.30
2022-08-04T08:25:52.893Z,33.67
2022-08-04T08:26:53.120Z,34.00
2022-08-04T08:27:55.922Z,34.00
2022-08-04T08:28:53.672Z,34.20
2022-08-04T08:29:53.976Z,33.97
2022-08-04T08:30:54.255Z,33.97
2022-08-04T08:31:59.525Z,34.20
2022-08-04T08:32:55.721Z,34.39
2022-08-04T08:33:55.072Z,34.45
2022-08-04T08:34:55.298Z,34.77
2022-08-04T08:35:55.550Z,35.20
2022-08-04T08:36:55.815Z,35.45
2022-08-04T08:37:56.095Z,35.57
2022-08-04T08:38:56.421Z,35.76
2022-08-04T08:39:56.626Z,36.19
2022-08-04T08:40:56.848Z,36.63
2022-08-04T08:41:57.240Z,36.79
2022-08-04T08:42:57.456Z,36.98
2022-08-04T08:44:06.003Z,37.10
2022-08-04T08:44:59.103Z,37.24
2022-08-04T08:45:58.365Z,37.56
2022-08-04T08:46:58.635Z,37.61
2022-08-04T08:48:05.358Z,37.56
2022-08-04T08:49:00.234Z,37.43
2022-08-04T08:50:02.048Z,37.20
2022-08-04T08:50:59.723Z,37.35
2022-08-04T08:51:59.976Z,37.42
2022-08-04T08:53:02.204Z,37.46
2022-08-04T08:54:00.556Z,37.54
2022-08-04T08:55:00.755Z,37.51
2022-08-04T08:56:01.066Z,37.64
2022-08-04T08:57:01.283Z,37.88
2022-08-04T08:58:01.515Z,37.81
2022-08-04T08:59:01.754Z,38.11
2022-08-04T09:00:02.094Z,38.10
2022-08-04T09:01:02.390Z,38.22
2022-08-04T09:02:02.684Z,37.99
2022-08-04T09:03:04.543Z,37.88
2022-08-04T09:04:03.199Z,37.78
2022-08-04T09:05:03.498Z,37.70
2022-08-04T09:06:03.690Z,37.74
2022-08-04T09:07:03.929Z,37.76
2022-08-04T09:08:04.311Z,38.29
2022-08-04T09:09:04.553Z,38.61
2022-08-04T09:10:04.846Z,38.99
2022-08-04T09:11:05.083Z,38.70
2022-08-04T09:12:05.441Z,38.85
2022-08-04T09:13:05.765Z,39.14
2022-08-04T09:14:05.964Z,39.27
2022-08-04T09:15:06.280Z,39.28
2022-08-04T09:16:06.504Z,39.22
2022-08-04T09:17:06.762Z,38.75
2022-08-04T09:18:07.025Z,38.95
2022-08-04T09:19:07.255Z,39.43
2022-08-04T09:20:07.608Z,39.44
2022-08-04T09:21:07.838Z,39.43
2022-08-04T09:22:12.351Z,39.36
2022-08-04T09:23:08.475Z,39.39
2022-08-04T09:24:36.654Z,39.03
2022-08-04T09:25:10.037Z,38.66
2022-08-04T09:26:09.287Z,37.92
2022-08-04T09:27:09.673Z,37.41
2022-08-04T09:28:09.930Z,37.68
2022-08-04T09:29:10.192Z,38.24
2022-08-04T09:30:10.459Z,38.51
2022-08-04T09:31:10.722Z,38.44
2022-08-04T09:32:11.032Z,38.73
2022-08-04T09:33:11.281Z,39.08
2022-08-04T09:34:11.525Z,39.52
2022-08-04T09:35:15.354Z,39.36
2022-08-04T09:36:12.137Z,39.15
2022-08-04T09:37:12.849Z,39.13
2022-08-04T09:38:12.655Z,39.03
2022-08-04T09:39:12.940Z,38.92
2022-08-04T09:40:14.619Z,39.39
2022-08-04T09:41:28.223Z,39.64
2022-08-04T09:42:14.675Z,38.68
2022-08-04T09:43:13.884Z,38.22
2022-08-04T09:44:48.952Z,38.64
2022-08-04T09:45:26.064Z,38.92
2022-08-04T09:46:15.727Z,39.37
2022-08-04T09:47:14.967Z,39.88
2022-08-04T09:48:15.219Z,39.70
2022-08-04T09:49:15.497Z,39.51
2022-08-04T09:50:15.923Z,39.78
2022-08-04T09:51:16.051Z,40.11
2022-08-04T09:52:16.424Z,40.30
2022-08-04T09:53:16.599Z,40.49
2022-08-04T09:54:29.327Z,40.72
2022-08-04T09:55:18.190Z,41.06
2022-08-04T09:56:17.474Z,40.81
2022-08-04T09:57:17.745Z,40.27
2022-08-04T09:58:17.973Z,40.27
2022-08-04T09:59:18.247Z,39.80
2022-08-04T10:00:18.509Z,39.21
2022-08-04T10:01:23.067Z,39.58
2022-08-04T10:02:19.292Z,40.24
2022-08-04T10:03:20.358Z,40.29
2022-08-04T10:04:19.719Z,40.43
2022-08-04T10:05:20.044Z,40.87
2022-08-04T10:06:20.361Z,39.95
2022-08-04T10:07:20.813Z,39.88
2022-08-04T10:08:20.954Z,40.49
2022-08-04T10:09:21.137Z,41.09
2022-08-04T10:10:21.465Z,41.59
2022-08-04T10:11:21.686Z,41.59
2022-08-04T10:12:21.986Z,41.81
2022-08-04T10:13:22.207Z,42.23
2022-08-04T10:14:23.212Z,42.35
2022-08-04T10:15:22.685Z,42.29
2022-08-04T10:16:23.037Z,42.12
2022-08-04T10:17:23.606Z,42.19
2022-08-04T10:18:23.605Z,42.04
2022-08-04T10:19:23.799Z,41.96
2022-08-04T10:20:44.395Z,41.78
2022-08-04T10:21:25.428Z,41.54
2022-08-04T10:22:29.018Z,41.78
2022-08-04T10:23:25.937Z,42.39
2022-08-04T10:24:25.245Z,42.70
2022-08-04T10:26:02.647Z,42.94
2022-08-04T10:26:26.698Z,43.25
2022-08-04T10:27:25.959Z,43.13
2022-08-04T10:28:26.246Z,43.06
2022-08-04T10:29:26.485Z,42.28
2022-08-04T10:30:26.829Z,42.37
2022-08-04T10:31:27.133Z,42.65
2022-08-04T10:32:27.427Z,42.66
2022-08-04T10:33:27.632Z,42.35
2022-08-04T10:34:27.988Z,40.80
2022-08-04T10:35:28.678Z,41.15
2022-08-04T10:36:28.512Z,41.18
2022-08-04T10:37:59.971Z,41.46
2022-08-04T10:38:30.007Z,41.91
2022-08-04T10:39:42.775Z,42.62
2022-08-04T10:40:30.510Z,42.13
2022-08-04T10:41:29.805Z,41.78
2022-08-04T10:42:30.030Z,42.25
2022-08-04T10:43:30.305Z,42.53
2022-08-04T10:44:30.555Z,42.50
2022-08-04T10:45:31.769Z,42.88
2022-08-04T10:46:31.213Z,42.73
2022-08-04T10:47:31.374Z,42.70
2022-08-04T10:48:34.743Z,43.34
2022-08-04T10:49:31.872Z,43.45
2022-08-04T10:50:32.109Z,43.92
2022-08-04T10:51:56.680Z,44.13
2022-08-04T10:52:33.627Z,44.04
2022-08-04T10:53:32.875Z,44.26
2022-08-04T10:54:33.170Z,44.61
2022-08-04T10:56:06.952Z,44.39
2022-08-04T10:56:34.710Z,43.67
2022-08-04T10:57:33.977Z,43.79
2022-08-04T10:58:47.382Z,43.85
2022-08-04T10:59:35.479Z,44.06
2022-08-04T11:00:34.742Z,43.71
2022-08-04T11:02:00.838Z,43.18
2022-08-04T11:02:36.302Z,43.18
2022-08-04T11:03:35.536Z,43.26
2022-08-04T11:04:35.762Z,43.56
2022-08-04T11:05:44.371Z,43.89
2022-08-04T11:06:37.319Z,44.29
2022-08-04T11:07:36.605Z,44.48
2022-08-04T11:08:36.834Z,44.82
2022-08-04T11:09:37.057Z,44.86
2022-08-04T11:10:37.434Z,44.52
2022-08-04T11:12:00.507Z,44.94
2022-08-04T11:12:38.986Z,44.92
2022-08-04T11:13:38.252Z,45.05
2022-08-04T11:14:38.885Z,45.23
2022-08-04T11:15:38.816Z,45.42
2022-08-04T11:16:39.081Z,45.68
2022-08-04T11:17:39.339Z,44.77
2022-08-04T11:18:39.577Z,43.63
2022-08-04T11:19:44.879Z,43.73
2022-08-04T11:20:41.118Z,43.76
2022-08-04T11:21:40.305Z,44.23
2022-08-04T11:22:40.560Z,44.58
2022-08-04T11:23:40.798Z,44.92
2022-08-04T11:24:41.051Z,45.21
2022-08-04T11:25:41.350Z,45.45
2022-08-04T11:26:41.580Z,45.72
2022-08-04T11:27:41.868Z,45.83
2022-08-04T11:28:42.170Z,45.42
2022-08-04T11:29:42.427Z,45.27
2022-08-04T11:30:42.687Z,44.68
2022-08-04T11:31:42.936Z,44.99
2022-08-04T11:32:43.242Z,45.15
2022-08-04T11:33:43.461Z,45.49
2022-08-04T11:34:43.825Z,45.88
2022-08-04T11:35:45.189Z,45.77
2022-08-04T11:36:44.578Z,45.46
2022-08-04T11:37:44.760Z,44.97
2022-08-04T11:38:44.995Z,44.58
2022-08-04T11:39:46.369Z,44.02
2022-08-04T11:41:02.041Z,43.73
2022-08-04T11:41:46.891Z,44.11
2022-08-04T11:42:46.192Z,44.33
2022-08-04T11:44:00.500Z,44.62
2022-08-04T11:44:47.633Z,44.39
2022-08-04T11:45:46.912Z,43.48
2022-08-04T11:46:47.184Z,43.51
2022-08-04T11:47:47.414Z,43.33
2022-08-04T11:48:47.709Z,43.30
2022-08-04T11:49:57.173Z,42.92
2022-08-04T11:50:53.576Z,42.76
2022-08-04T11:51:48.590Z,42.56
2022-08-04T11:52:48.854Z,42.37
2022-08-04T11:53:49.127Z,42.12
2022-08-04T11:54:52.751Z,41.91
2022-08-04T11:56:07.891Z,41.75
2022-08-04T11:56:51.033Z,41.63
2022-08-04T11:57:54.320Z,41.31
2022-08-04T11:58:50.732Z,41.09
2022-08-04T11:59:50.739Z,40.86
2022-08-04T12:00:50.984Z,40.62
2022-08-04T12:01:51.272Z,40.40
2022-08-04T12:02:51.525Z,40.27
2022-08-04T12:04:01.989Z,40.17
2022-08-04T12:04:53.105Z,40.15
2022-08-04T12:05:52.399Z,40.12
2022-08-04T12:07:04.505Z,40.07
2022-08-04T12:07:53.904Z,40.12
2022-08-04T12:08:53.161Z,40.12
2022-08-04T12:09:53.437Z,40.27
2022-08-04T12:10:53.690Z,40.27
2022-08-04T12:11:53.950Z,39.99
2022-08-04T12:12:54.196Z,39.88
2022-08-04T12:13:58.722Z,39.83
2022-08-04T12:14:55.788Z,39.88
2022-08-04T12:15:55.055Z,39.81
2022-08-04T12:16:55.337Z,39.86
2022-08-04T12:17:55.533Z,39.92
2022-08-04T12:18:55.755Z,39.90
2022-08-04T12:20:05.285Z,39.88
2022-08-04T12:20:57.378Z,39.76
2022-08-04T12:21:57.019Z,39.35
2022-08-04T12:22:57.062Z,39.01
2022-08-04T12:24:00.806Z,39.03
2022-08-04T12:24:57.716Z,39.03
2022-08-04T12:25:57.948Z,39.13
2022-08-04T12:26:58.211Z,39.13
2022-08-04T12:27:58.453Z,39.21
2022-08-04T12:29:14.072Z,39.13
2022-08-04T12:30:57.469Z,39.06
2022-08-04T12:31:04.257Z,39.08
2022-08-04T12:32:00.653Z,39.14
2022-08-04T12:32:59.910Z,39.24
2022-08-04T12:34:04.547Z,39.24
2022-08-04T12:35:01.471Z,39.28
2022-08-04T12:36:11.323Z,39.33
2022-08-04T12:37:01.954Z,39.36
2022-08-04T12:38:01.215Z,39.22
2022-08-04T12:39:01.576Z,39.02
2022-08-04T12:40:27.433Z,38.80
2022-08-04T12:41:03.082Z,38.53
2022-08-04T12:42:02.322Z,38.34
2022-08-04T12:43:02.569Z,38.22
2022-08-04T12:44:02.850Z,38.11
2022-08-04T12:45:03.115Z,38.15
2022-08-04T12:46:03.375Z,38.17
2022-08-04T12:47:25.806Z,38.10
2022-08-04T12:48:04.987Z,38.08
2022-08-04T12:49:04.195Z,38.14
2022-08-04T12:50:04.443Z,38.15
2022-08-04T12:51:04.693Z,38.22
2022-08-04T12:52:08.300Z,38.30
2022-08-04T12:53:05.424Z,38.36
2022-08-04T12:54:05.670Z,38.38
2022-08-04T12:55:05.941Z,38.38
2022-08-04T12:56:06.127Z,38.41